Map

Track Data

SID SEASON NUMBER BASIN SUBBASIN NAME ISO_TIME NATURE LAT LON WMO_WIND WMO_PRES WMO_AGENCY TRACK_TYPE DIST2LAND LANDFALL IFLAG USA_AGENCY USA_ATCF_ID USA_LAT USA_LON USA_RECORD USA_STATUS USA_WIND USA_PRES USA_SSHS USA_R34_NE USA_R34_SE USA_R34_SW USA_R34_NW USA_R50_NE USA_R50_SE USA_R50_SW USA_R50_NW USA_R64_NE USA_R64_SE USA_R64_SW USA_R64_NW USA_POCI USA_ROCI USA_RMW USA_EYE TOKYO_LAT TOKYO_LON TOKYO_GRADE TOKYO_WIND TOKYO_PRES TOKYO_R50_DIR TOKYO_R50_LONG TOKYO_R50_SHORT TOKYO_R30_DIR TOKYO_R30_LONG TOKYO_R30_SHORT TOKYO_LAND CMA_LAT CMA_LON CMA_CAT CMA_WIND CMA_PRES HKO_LAT HKO_LON HKO_CAT HKO_WIND HKO_PRES NEWDELHI_LAT NEWDELHI_LON NEWDELHI_GRADE NEWDELHI_WIND NEWDELHI_PRES NEWDELHI_CI NEWDELHI_DP NEWDELHI_POCI REUNION_LAT REUNION_LON REUNION_TYPE REUNION_WIND REUNION_PRES REUNION_TNUM REUNION_CI REUNION_RMW REUNION_R34_NE REUNION_R34_SE REUNION_R34_SW REUNION_R34_NW REUNION_R50_NE REUNION_R50_SE REUNION_R50_SW REUNION_R50_NW REUNION_R64_NE REUNION_R64_SE REUNION_R64_SW REUNION_R64_NW BOM_LAT BOM_LON BOM_TYPE BOM_WIND BOM_PRES BOM_TNUM BOM_CI BOM_RMW BOM_R34_NE BOM_R34_SE BOM_R34_SW BOM_R34_NW BOM_R50_NE BOM_R50_SE BOM_R50_SW BOM_R50_NW BOM_R64_NE BOM_R64_SE BOM_R64_SW BOM_R64_NW BOM_ROCI BOM_POCI BOM_EYE BOM_POS_METHOD BOM_PRES_METHOD NADI_LAT NADI_LON NADI_CAT NADI_WIND NADI_PRES WELLINGTON_LAT WELLINGTON_LON WELLINGTON_WIND WELLINGTON_PRES DS824_LAT DS824_LON DS824_STAGE DS824_WIND DS824_PRES TD9636_LAT TD9636_LON TD9636_STAGE TD9636_WIND TD9636_PRES TD9635_LAT TD9635_LON TD9635_WIND TD9635_PRES TD9635_ROCI NEUMANN_LAT NEUMANN_LON NEUMANN_CLASS NEUMANN_WIND NEUMANN_PRES MLC_LAT MLC_LON MLC_CLASS MLC_WIND MLC_PRES USA_GUST BOM_GUST BOM_GUST_PER REUNION_GUST REUNION_GUST_PER USA_SEAHGT USA_SEARAD_NE USA_SEARAD_SE USA_SEARAD_SW USA_SEARAD_NW STORM_SPEED STORM_DIR
1981265N14328 1981 85 NA NA IRENE 1981-09-21 12:00:00 TS 13.5000 -32.5000 25 1015 hurdat_atl main 1623 1623 O_____________ hurdat_atl AL181981 13.5000 -32.5000 TD 25 1015 -1 10 259
1981265N14328 1981 85 NA NA IRENE 1981-09-21 15:00:00 TS 13.3976 -33.0251 main 1678 1678 P_____________ AL181981 13.3976 -33.0251 TD 25 1014 -1 11 259
1981265N14328 1981 85 NA NA IRENE 1981-09-21 18:00:00 TS 13.3000 -33.6000 25 1013 hurdat_atl main 1744 1744 O_____________ hurdat_atl AL181981 13.3000 -33.6000 TD 25 1013 -1 12 261
1981265N14328 1981 85 NA NA IRENE 1981-09-21 21:00:00 TS 13.2076 -34.2499 main 1810 1810 P_____________ AL181981 13.2076 -34.2499 TD 25 1012 -1 13 261
1981265N14328 1981 85 NA NA IRENE 1981-09-22 00:00:00 TS 13.1000 -34.9000 25 1012 hurdat_atl main 1872 1846 O_____________ hurdat_atl AL181981 13.1000 -34.9000 TD 25 1012 -1 12 258
1981265N14328 1981 85 NA NA IRENE 1981-09-22 03:00:00 TS 12.9497 -35.4575 main 1832 1808 P_____________ AL181981 12.9497 -35.4575 TD 27 1011 -1 11 254
1981265N14328 1981 85 NA NA IRENE 1981-09-22 06:00:00 TS 12.8000 -36.0000 30 1011 hurdat_atl main 1808 1783 O_____________ hurdat_atl AL181981 12.8000 -36.0000 TD 30 1011 -1 11 257
1981265N14328 1981 85 NA NA IRENE 1981-09-22 09:00:00 TS 12.6849 -36.5925 main 1783 1760 P_____________ AL181981 12.6849 -36.5925 TD 30 1010 -1 12 260
1981265N14328 1981 85 NA NA IRENE 1981-09-22 12:00:00 TS 12.6000 -37.2000 30 1010 hurdat_atl main 1760 1739 O_____________ hurdat_atl AL181981 12.6000 -37.2000 TD 30 1010 -1 12 263
1981265N14328 1981 85 NA NA IRENE 1981-09-22 15:00:00 TS 12.5424 -37.7999 main 1739 1690 P_____________ AL181981 12.5424 -37.7999 TD 30 1009 -1 12 265
1981265N14328 1981 85 NA NA IRENE 1981-09-22 18:00:00 TS 12.5000 -38.4000 30 1009 hurdat_atl main 1690 1629 O_____________ hurdat_atl AL181981 12.5000 -38.4000 TD 30 1009 -1 12 265
1981265N14328 1981 85 NA NA IRENE 1981-09-22 21:00:00 TS 12.4349 -39.0001 main 1629 1574 P_____________ AL181981 12.4349 -39.0001 TD 30 1008 -1 12 265
1981265N14328 1981 85 NA NA IRENE 1981-09-23 00:00:00 TS 12.4000 -39.6000 30 1007 hurdat_atl main 1574 1521 O_____________ hurdat_atl AL181981 12.4000 -39.6000 TD 30 1007 -1 12 270
1981265N14328 1981 85 NA NA IRENE 1981-09-23 03:00:00 TS 12.4273 -40.1850 main 1521 1475 P_____________ AL181981 12.4273 -40.1850 TD 32 1006 -1 12 275
1981265N14328 1981 85 NA NA IRENE 1981-09-23 06:00:00 TS 12.5000 -40.8000 35 1005 hurdat_atl main 1475 1431 O_____________ hurdat_atl AL181981 12.5000 -40.8000 TS 35 1005 0 13 277
1981265N14328 1981 85 NA NA IRENE 1981-09-23 09:00:00 TS 12.5848 -41.4701 main 1423 1373 P_____________ AL181981 12.5848 -41.4701 TS 37 1004 0 14 278
1981265N14328 1981 85 NA NA IRENE 1981-09-23 12:00:00 TS 12.7000 -42.2000 40 1003 hurdat_atl main 1373 1326 O_____________ hurdat_atl AL181981 12.7000 -42.2000 TS 40 1003 0 15 280
1981265N14328 1981 85 NA NA IRENE 1981-09-23 15:00:00 TS 12.8425 -42.9925 main 1318 1276 P_____________ AL181981 12.8425 -42.9925 TS 42 1002 0 16 281
1981265N14328 1981 85 NA NA IRENE 1981-09-23 18:00:00 TS 13.0000 -43.8000 45 1001 hurdat_atl main 1276 1237 O_____________ hurdat_atl AL181981 13.0000 -43.8000 TS 45 1001 0 16 281
1981265N14328 1981 85 NA NA IRENE 1981-09-23 21:00:00 TS 13.1348 -44.5652 main 1230 1204 P_____________ AL181981 13.1348 -44.5652 TS 45 1000 0 15 282
1981265N14328 1981 85 NA NA IRENE 1981-09-24 00:00:00 TS 13.3000 -45.3000 45 999 hurdat_atl main 1204 1178 O_____________ hurdat_atl AL181981 13.3000 -45.3000 TS 45 999 0 15 286
1981265N14328 1981 85 NA NA IRENE 1981-09-24 03:00:00 TS 13.5349 -46.0299 main 1178 1157 P_____________ AL181981 13.5349 -46.0299 TS 47 997 0 15 290
1981265N14328 1981 85 NA NA IRENE 1981-09-24 06:00:00 TS 13.8000 -46.7000 50 996 hurdat_atl main 1160 1145 O_____________ hurdat_atl AL181981 13.8000 -46.7000 TS 50 996 0 13 292
1981265N14328 1981 85 NA NA IRENE 1981-09-24 09:00:00 TS 14.0347 -47.2728 main 1144 1142 P_____________ AL181981 14.0347 -47.2728 TS 52 995 0 12 295
1981265N14328 1981 85 NA NA IRENE 1981-09-24 12:00:00 TS 14.3000 -47.8000 55 994 hurdat_atl main 1146 1141 O_____________ hurdat_atl AL181981 14.3000 -47.8000 TS 55 994 0 12 300
1981265N14328 1981 85 NA NA IRENE 1981-09-24 15:00:00 TS 14.6423 -48.3425 main 1152 1152 P_____________ AL181981 14.6423 -48.3425 TS 57 992 0 13 303
1981265N14328 1981 85 NA NA IRENE 1981-09-24 18:00:00 TS 15.0000 -48.9000 60 991 hurdat_atl main 1167 1163 O_____________ hurdat_atl AL181981 15.0000 -48.9000 TS 60 991 0 13 300
1981265N14328 1981 85 NA NA IRENE 1981-09-24 21:00:00 TS 15.2775 -49.5004 main 1171 1166 P_____________ AL181981 15.2775 -49.5004 TS 62 989 0 13 297
1981265N14328 1981 85 NA NA IRENE 1981-09-25 00:00:00 TS 15.6000 -50.1000 65 987 hurdat_atl main 1174 1170 O_____________ hurdat_atl AL181981 15.6000 -50.1000 HU 65 987 1 14 305
1981265N14328 1981 85 NA NA IRENE 1981-09-25 03:00:00 TS 16.0850 -50.6798 main 1204 1204 P_____________ AL181981 16.0850 -50.6798 HU 67 985 1 15 313
1981265N14328 1981 85 NA NA IRENE 1981-09-25 06:00:00 TS 16.6000 -51.2000 70 983 hurdat_atl main 1242 1229 O_____________ hurdat_atl AL181981 16.6000 -51.2000 HU 70 983 1 13 316
1981265N14328 1981 85 NA NA IRENE 1981-09-25 09:00:00 TS 17.0148 -51.6229 main 1235 1224 P_____________ AL181981 17.0148 -51.6229 HU 75 981 1 11 316
1981265N14328 1981 85 NA NA IRENE 1981-09-25 12:00:00 TS 17.4000 -52.0000 80 980 hurdat_atl main 1226 1213 O_____________ hurdat_atl AL181981 17.4000 -52.0000 HU 80 980 1 11 316
1981265N14328 1981 85 NA NA IRENE 1981-09-25 15:00:00 TS 17.7925 -52.4077 main 1220 1211 P_____________ AL181981 17.7925 -52.4077 HU 85 978 2 11 316
1981265N14328 1981 85 NA NA IRENE 1981-09-25 18:00:00 TS 18.2000 -52.8000 90 977 hurdat_atl main 1218 1217 O_____________ hurdat_atl AL181981 18.2000 -52.8000 HU 90 977 2 11 321
1981265N14328 1981 85 NA NA IRENE 1981-09-25 21:00:00 TS 18.6648 -53.1501 main 1226 1226 P_____________ AL181981 18.6648 -53.1501 HU 87 976 2 11 324
1981265N14328 1981 85 NA NA IRENE 1981-09-26 00:00:00 TS 19.1000 -53.5000 85 976 hurdat_atl main 1238 1234 O_____________ hurdat_atl AL181981 19.1000 -53.5000 HU 85 976 2 10 317
1981265N14328 1981 85 NA NA IRENE 1981-09-26 03:00:00 TS 19.4225 -53.8927 main 1235 1196 P_____________ AL181981 19.4225 -53.8927 HU 82 976 1 10 308
1981265N14328 1981 85 NA NA IRENE 1981-09-26 06:00:00 TS 19.7000 -54.3000 80 976 hurdat_atl main 1196 1158 O_____________ hurdat_atl AL181981 19.7000 -54.3000 HU 80 976 1 10 306
1981265N14328 1981 85 NA NA IRENE 1981-09-26 09:00:00 TS 19.9925 -54.7151 main 1158 1121 P_____________ AL181981 19.9925 -54.7151 HU 80 978 1 10 309
1981265N14328 1981 85 NA NA IRENE 1981-09-26 12:00:00 TS 20.3000 -55.1000 80 980 hurdat_atl main 1121 1096 O_____________ hurdat_atl AL181981 20.3000 -55.1000 HU 80 980 1 9 315
1981265N14328 1981 85 NA NA IRENE 1981-09-26 15:00:00 TS 20.6348 -55.4078 main 1096 1076 P_____________ AL181981 20.6348 -55.4078 HU 82 981 1 9 321
1981265N14328 1981 85 NA NA IRENE 1981-09-26 18:00:00 TS 21.0000 -55.7000 85 982 hurdat_atl main 1076 1054 O_____________ hurdat_atl AL181981 21.0000 -55.7000 HU 85 982 2 10 322
1981265N14328 1981 85 NA NA IRENE 1981-09-26 21:00:00 TS 21.4076 -56.0648 main 1048 1029 P_____________ AL181981 21.4076 -56.0648 HU 90 975 2 10 321
1981265N14328 1981 85 NA NA IRENE 1981-09-27 00:00:00 TS 21.8000 -56.4000 95 968 hurdat_atl main 1032 1021 O_____________ hurdat_atl AL181981 21.8000 -56.4000 HU 95 968 2 9 324
1981265N14328 1981 85 NA NA IRENE 1981-09-27 03:00:00 TS 22.1149 -56.6228 main 1025 1015 P_____________ AL181981 22.1149 -56.6228 HU 92 967 2 7 328
1981265N14328 1981 85 NA NA IRENE 1981-09-27 06:00:00 TS 22.4000 -56.8000 90 966 hurdat_atl main 1019 1010 O_____________ hurdat_atl AL181981 22.4000 -56.8000 HU 90 966 2 7 327
1981265N14328 1981 85 NA NA IRENE 1981-09-27 09:00:00 TS 22.6850 -57.0299 main 1015 1006 P_____________ AL181981 22.6850 -57.0299 HU 90 968 2 7 328
1981265N14328 1981 85 NA NA IRENE 1981-09-27 12:00:00 TS 23.0000 -57.2000 90 970 hurdat_atl main 1013 1013 O_____________ hurdat_atl AL181981 23.0000 -57.2000 HU 90 970 2 7 344
1981265N14328 1981 85 NA NA IRENE 1981-09-27 15:00:00 TS 23.3774 -57.2525 main 1027 1027 P_____________ AL181981 23.3774 -57.2525 HU 92 968 2 8 1
1981265N14328 1981 85 NA NA IRENE 1981-09-27 18:00:00 TS 23.8000 -57.2000 95 966 hurdat_atl main 1059 1059 O_____________ hurdat_atl AL181981 23.8000 -57.2000 HU 95 966 2 9 12
1981265N14328 1981 85 NA NA IRENE 1981-09-27 21:00:00 TS 24.2276 -57.0578 main 1092 1092 P_____________ AL181981 24.2276 -57.0578 HU 97 964 3 9 17
1981265N14328 1981 85 NA NA IRENE 1981-09-28 00:00:00 TS 24.7000 -56.9000 100 962 hurdat_atl main 1141 1141 O_____________ hurdat_atl AL181981 24.7000 -56.9000 HU 100 962 3 10 11
1981265N14328 1981 85 NA NA IRENE 1981-09-28 03:00:00 TS 25.2275 -56.8348 main 1183 1183 P_____________ AL181981 25.2275 -56.8348 HU 102 964 3 11 5
1981265N14328 1981 85 NA NA IRENE 1981-09-28 06:00:00 TS 25.8000 -56.8000 105 966 hurdat_atl main 1226 1226 O_____________ hurdat_atl AL181981 25.8000 -56.8000 HU 105 966 3 12 3
1981265N14328 1981 85 NA NA IRENE 1981-09-28 09:00:00 TS 26.3774 -56.7794 main 1270 1270 P_____________ AL181981 26.3774 -56.7794 HU 105 962 3 12 4
1981265N14328 1981 85 NA NA IRENE 1981-09-28 12:00:00 TS 27.0000 -56.7000 105 959 hurdat_atl main 1324 1324 O_____________ hurdat_atl AL181981 27.0000 -56.7000 HU 105 959 3 13 10
1981265N14328 1981 85 NA NA IRENE 1981-09-28 15:00:00 TS 27.6849 -56.5097 main 1394 1394 P_____________ AL181981 27.6849 -56.5097 HU 105 959 3 15 18
1981265N14328 1981 85 NA NA IRENE 1981-09-28 18:00:00 TS 28.4000 -56.2000 105 960 hurdat_atl main 1471 1471 O_____________ hurdat_atl AL181981 28.4000 -56.2000 HU 105 960 3 15 24
1981265N14328 1981 85 NA NA IRENE 1981-09-28 21:00:00 TS 29.0923 -55.8092 main 1555 1555 P_____________ AL181981 29.0923 -55.8092 HU 102 961 3 16 29
1981265N14328 1981 85 NA NA IRENE 1981-09-29 00:00:00 TS 29.8000 -55.3000 100 962 hurdat_atl main 1645 1645 O_____________ hurdat_atl AL181981 29.8000 -55.3000 HU 100 962 3 18 34
1981265N14328 1981 85 NA NA IRENE 1981-09-29 03:00:00 TS 30.5575 -54.6874 main 1712 1664 P_____________ AL181981 30.5575 -54.6874 HU 100 963 3 19 37
1981265N14328 1981 85 NA NA IRENE 1981-09-29 06:00:00 TS 31.3000 -54.0000 100 965 hurdat_atl main 1664 1622 O_____________ hurdat_atl AL181981 31.3000 -54.0000 HU 100 965 3 18 39
1981265N14328 1981 85 NA NA IRENE 1981-09-29 09:00:00 TS 31.9486 -53.3645 main 1622 1559 P_____________ AL181981 31.9486 -53.3645 HU 97 966 3 18 42
1981265N14328 1981 85 NA NA IRENE 1981-09-29 12:00:00 TS 32.6000 -52.6000 95 968 hurdat_atl main 1559 1485 O_____________ hurdat_atl AL181981 32.6000 -52.6000 HU 95 968 2 20 47
1981265N14328 1981 85 NA NA IRENE 1981-09-29 15:00:00 TS 33.3115 -51.6098 main 1486 1409 P_____________ AL181981 33.3115 -51.6098 HU 92 970 2 24 51
1981265N14328 1981 85 NA NA IRENE 1981-09-29 18:00:00 TS 34.1000 -50.4000 90 972 hurdat_atl main 1410 1346 O_____________ hurdat_atl AL181981 34.1000 -50.4000 HU 90 972 2 28 52
1981265N14328 1981 85 NA NA IRENE 1981-09-29 21:00:00 TS 34.9938 -48.9664 main 1337 1277 P_____________ AL181981 34.9938 -48.9664 HU 87 974 2 30 53
1981265N14328 1981 85 NA NA IRENE 1981-09-30 00:00:00 TS 35.9000 -47.5000 85 976 hurdat_atl main 1280 1239 O_____________ hurdat_atl AL181981 35.9000 -47.5000 HU 85 976 2 28 51
1981265N14328 1981 85 NA NA IRENE 1981-09-30 03:00:00 TS 36.7268 -46.2808 main 1239 1205 P_____________ AL181981 36.7268 -46.2808 HU 82 978 1 25 50
1981265N14328 1981 85 NA NA IRENE 1981-09-30 06:00:00 TS 37.5000 -45.1000 80 980 hurdat_atl main 1210 1200 O_____________ hurdat_atl AL181981 37.5000 -45.1000 HU 80 980 1 25 53
1981265N14328 1981 85 NA NA IRENE 1981-09-30 09:00:00 TS 38.2361 -43.7857 main 1208 1200 P_____________ AL181981 38.2361 -43.7857 HU 77 981 1 25 57
1981265N14328 1981 85 NA NA IRENE 1981-09-30 12:00:00 TS 38.9000 -42.4000 75 983 hurdat_atl main 1224 1224 O_____________ hurdat_atl AL181981 38.9000 -42.4000 HU 75 983 1 25 61
1981265N14328 1981 85 NA NA IRENE 1981-09-30 15:00:00 TS 39.4548 -40.9972 main 1262 1262 P_____________ AL181981 39.4548 -40.9972 HU 72 984 1 25 64
1981265N14328 1981 85 NA NA IRENE 1981-09-30 18:00:00 TS 40.0000 -39.5000 70 986 hurdat_atl main 1320 1320 O_____________ hurdat_atl AL181981 40.0000 -39.5000 HU 70 986 1 27 64
1981265N14328 1981 85 NA NA IRENE 1981-09-30 21:00:00 TS 40.6445 -37.7641 main 1395 1395 P_____________ AL181981 40.6445 -37.7641 HU 67 987 1 29 63
1981265N14328 1981 85 NA NA IRENE 1981-10-01 00:00:00 TS 41.3000 -36.1000 65 989 hurdat_atl main 1472 1472 O_____________ hurdat_atl AL181981 41.3000 -36.1000 HU 65 989 1 26 61
1981265N14328 1981 85 NA NA IRENE 1981-10-01 03:00:00 TS 41.9049 -34.7695 main 1528 1528 P_____________ AL181981 41.9049 -34.7695 HU 62 990 0 21 56
1981265N14328 1981 85 NA NA IRENE 1981-10-01 06:00:00 TS 42.5000 -33.7000 60 991 hurdat_atl main 1576 1576 O_____________ hurdat_atl AL181981 42.5000 -33.7000 TS 60 991 0 19 50
1981265N14328 1981 85 NA NA IRENE 1981-10-01 09:00:00 TS 43.1055 -32.7947 main 1612 1612 P_____________ AL181981 43.1055 -32.7947 TS 60 992 0 17 46
1981265N14328 1981 85 NA NA IRENE 1981-10-01 12:00:00 TS 43.7000 -32.0000 60 994 hurdat_atl main 1645 1645 O_____________ hurdat_atl AL181981 43.7000 -32.0000 TS 60 994 0 17 44
1981265N14328 1981 85 NA NA IRENE 1981-10-01 15:00:00 TS 44.3167 -31.1581 main 1681 1651 P_____________ AL181981 44.3167 -31.1581 TS 57 995 0 16 48
1981265N14328 1981 85 NA NA IRENE 1981-10-01 18:00:00 TS 44.8000 -30.3000 55 996 hurdat_atl main 1651 1593 O_____________ hurdat_atl AL181981 44.8000 -30.3000 TS 55 996 0 13 59
1981265N14328 1981 85 NA NA IRENE 1981-10-01 21:00:00 TS 45.0054 -29.5308 main 1587 1523 P_____________ AL181981 45.0054 -29.5308 TS 52 997 0 13 77
1981265N14328 1981 85 NA NA IRENE 1981-10-02 00:00:00 TS 45.1000 -28.5000 50 999 hurdat_atl main 1516 1409 O_____________ hurdat_atl AL181981 45.1000 -28.5000 TS 50 999 0 19 81
1981265N14328 1981 85 NA NA IRENE 1981-10-02 03:00:00 TS 45.2878 -26.9181 main 1403 1280 P_____________ AL181981 45.2878 -26.9181 TS 47 0 25 83
1981265N14328 1981 85 NA NA IRENE 1981-10-02 06:00:00 ET 45.4000 -25.0000 45 hurdat_atl main 1272 1126 O_____________ hurdat_atl AL181981 45.4000 -25.0000 EX 45 -4 27 88
1981265N14328 1981 85 NA NA IRENE 1981-10-02 09:00:00 ET 45.3732 -23.0381 main 1118 969 P_____________ AL181981 45.3732 -23.0381 EX 45 -4 28 94
1981265N14328 1981 85 NA NA IRENE 1981-10-02 12:00:00 ET 45.2000 -21.0000 45 hurdat_atl main 961 816 O_____________ hurdat_atl AL181981 45.2000 -21.0000 EX 45 -4 28 100
1981265N14328 1981 85 NA NA IRENE 1981-10-02 15:00:00 ET 44.8921 -19.1141 main 809 645 P_____________ AL181981 44.8921 -19.1141 EX 45 -4 29 104
1981265N14328 1981 85 NA NA IRENE 1981-10-02 18:00:00 ET 44.5000 -17.0000 45 hurdat_atl main 638 437 O_____________ hurdat_atl AL181981 44.5000 -17.0000 EX 45 -4 34 107
1981265N14328 1981 85 NA NA IRENE 1981-10-02 21:00:00 ET 43.8819 -14.4825 main 429 204 P_____________ AL181981 43.8819 -14.4825 EX 45 -4 40 103
1981265N14328 1981 85 NA NA IRENE 1981-10-03 00:00:00 ET 43.6000 -11.5000 45 hurdat_atl main 189 41 O_____________ hurdat_atl AL181981 43.6000 -11.5000 EX 45 -4 47 87
1981265N14328 1981 85 NA NA IRENE 1981-10-03 03:00:00 ET 44.0970 -7.96375 main 44 44 P_____________ AL181981 44.0970 -7.96375 EX 45 -4 55 75
1981265N14328 1981 85 NA NA IRENE 1981-10-03 06:00:00 ET 45.0000 -4.00000 45 hurdat_atl main 177 O_____________ hurdat_atl AL181981 45.0000 -4.00000 EX 45 -4 59 72

About IBTrACS Database

This database is a web-friendly format of International Best Track Archive for Climate Stewardship (IBTrACS), a global best track data archive curated by NOAA dating back to 1842.

Updated: 2021-12-03